KBNW/BNW METAR and TAF weather

Enter ICAO airport designator
Station Type Date Time Source
KBNW METAR 2020/06/05 08:55 UTC NOAA

KBNW 050855Z AUTO 18010KT 10SM 24/24 A2973 RMK AO2


Station Type Date Time Source
KBNW Decoded METAR 2020/06/05 08:55 UTC NOAA

Boone Municipal, IA, United States (KBNW) 42-03N 093-51W
Jun 05, 2020 - 04:55 AM EDT / 2020.06.05 0855 UTC
Wind: from the S (180 degrees) at 12 MPH (10 KT):0
Visibility: 10 mile(s):0
Temperature: 75 F (24 C)
Dew Point: 75 F (24 C)
Relative Humidity: 100%
Pressure (altimeter): 29.73 in. Hg (1006 hPa)
ob: KBNW 050855Z AUTO 18010KT 10SM 24/24 A2973 RMK AO2
cycle: 9

Station Type Date Time Source
KBNW TAF UTC NOAA

Error!

Example: see airport list